createdAt,value
2018-07-11T00:02:12.076Z,93.35
2018-07-11T00:04:38.402Z,93.17
2018-07-11T00:07:04.730Z,92.86
2018-07-11T00:09:31.043Z,92.99
2018-07-11T00:11:57.362Z,92.94
2018-07-11T00:14:23.677Z,92.60
2018-07-11T00:16:49.990Z,92.52
2018-07-11T00:19:16.307Z,92.81
2018-07-11T00:21:42.618Z,93.13
2018-07-11T00:24:08.928Z,93.45
2018-07-11T00:26:35.244Z,93.51
2018-07-11T00:29:01.559Z,93.30
2018-07-11T00:31:27.882Z,93.16
2018-07-11T00:33:54.197Z,93.49
2018-07-11T00:36:20.508Z,93.64
2018-07-11T00:38:46.824Z,93.48
2018-07-11T00:41:13.134Z,93.78
2018-07-11T00:43:39.449Z,93.84
2018-07-11T00:46:05.765Z,93.93
2018-07-11T00:48:32.072Z,94.00
2018-07-11T00:50:58.386Z,94.00
2018-07-11T00:53:24.700Z,93.60
2018-07-11T00:55:51.022Z,93.65
2018-07-11T00:58:17.324Z,93.98
2018-07-11T01:00:43.641Z,93.85
2018-07-11T01:03:09.960Z,94.10
2018-07-11T01:05:36.332Z,94.02
2018-07-11T01:08:02.681Z,93.98
2018-07-11T01:10:29.095Z,94.33
2018-07-11T01:12:55.456Z,94.15
2018-07-11T01:15:21.813Z,94.08
2018-07-11T01:17:48.161Z,93.90
2018-07-11T01:20:14.525Z,94.14
2018-07-11T01:22:40.886Z,94.17
2018-07-11T01:25:07.257Z,94.28
2018-07-11T01:27:33.609Z,94.11
2018-07-11T01:29:59.969Z,94.10
2018-07-11T01:32:26.321Z,94.25
2018-07-11T01:34:52.673Z,94.32
2018-07-11T01:37:19.033Z,94.31
2018-07-11T01:39:45.395Z,93.98
2018-07-11T01:42:11.754Z,93.75
2018-07-11T01:44:38.152Z,93.69
2018-07-11T01:47:04.512Z,93.77
2018-07-11T01:49:30.910Z,93.38
2018-07-11T01:51:57.299Z,93.99
2018-07-11T01:54:23.628Z,94.62
2018-07-11T01:56:49.980Z,95.14
2018-07-11T01:59:16.343Z,95.35
2018-07-11T02:01:42.695Z,95.53
2018-07-11T02:04:09.050Z,95.58
2018-07-11T02:06:35.421Z,95.09
2018-07-11T02:09:01.787Z,94.89
2018-07-11T02:11:28.138Z,94.94
2018-07-11T02:13:54.498Z,95.13
2018-07-11T02:16:20.881Z,94.78
2018-07-11T02:18:47.288Z,95.00
2018-07-11T02:21:13.677Z,95.08
2018-07-11T02:23:40.036Z,95.16
2018-07-11T02:26:06.444Z,95.20
2018-07-11T02:28:32.805Z,95.32
2018-07-11T02:30:59.160Z,95.37
2018-07-11T02:33:25.513Z,95.15
2018-07-11T02:35:51.862Z,94.77
2018-07-11T02:38:18.216Z,94.83
2018-07-11T02:40:44.584Z,94.97
2018-07-11T02:43:10.978Z,94.96
2018-07-11T02:45:37.333Z,95.18
2018-07-11T02:48:03.691Z,95.04
2018-07-11T02:50:30.048Z,94.83
2018-07-11T02:52:56.408Z,95.25
2018-07-11T02:55:22.761Z,95.74
2018-07-11T02:57:49.125Z,96.13
2018-07-11T03:00:15.517Z,96.49
2018-07-11T03:02:41.871Z,96.40
2018-07-11T03:05:08.225Z,96.10
2018-07-11T03:07:34.631Z,95.96
2018-07-11T03:10:00.989Z,95.64
2018-07-11T03:12:27.342Z,95.39
2018-07-11T03:14:53.694Z,95.08
2018-07-11T03:17:20.051Z,95.39
2018-07-11T03:19:46.402Z,95.62
2018-07-11T03:22:12.761Z,95.82
2018-07-11T03:24:39.117Z,95.85
2018-07-11T03:27:05.470Z,95.74
2018-07-11T03:29:31.825Z,95.10
2018-07-11T03:31:58.193Z,94.98
2018-07-11T03:34:24.554Z,95.11
2018-07-11T03:36:50.930Z,95.28
2018-07-11T03:39:17.285Z,95.28
2018-07-11T03:41:43.640Z,95.00
2018-07-11T03:44:10.033Z,95.01
2018-07-11T03:46:36.429Z,94.74
2018-07-11T03:49:02.834Z,94.47
2018-07-11T03:51:29.187Z,94.44
2018-07-11T03:53:55.546Z,94.34
2018-07-11T03:56:21.906Z,94.23
2018-07-11T03:58:48.266Z,93.97
2018-07-11T04:01:14.621Z,93.56
2018-07-11T04:03:41.025Z,92.83
2018-07-11T04:06:07.381Z,92.33
2018-07-11T04:08:33.838Z,91.98
2018-07-11T04:11:00.159Z,91.86
2018-07-11T04:13:26.508Z,91.50
2018-07-11T04:15:52.892Z,91.21
2018-07-11T04:18:19.241Z,90.75
2018-07-11T04:20:45.643Z,90.44
2018-07-11T04:23:12.220Z,90.72
2018-07-11T04:25:38.592Z,90.48
2018-07-11T04:28:04.951Z,90.11
2018-07-11T04:30:31.317Z,90.17
2018-07-11T04:32:57.688Z,89.63
2018-07-11T04:35:24.049Z,89.25
2018-07-11T04:37:50.445Z,89.16
2018-07-11T04:40:16.804Z,89.03
2018-07-11T04:42:43.158Z,88.70
2018-07-11T04:45:09.520Z,88.01
2018-07-11T04:47:35.900Z,87.50
2018-07-11T04:50:02.266Z,87.11
2018-07-11T04:52:28.626Z,87.14
2018-07-11T04:54:55.087Z,87.41
2018-07-11T04:57:21.418Z,87.26
2018-07-11T04:59:47.840Z,85.91
2018-07-11T05:02:14.296Z,85.97
2018-07-11T05:04:40.711Z,85.18
2018-07-11T05:07:07.120Z,85.17
2018-07-11T05:09:33.477Z,84.46
2018-07-11T05:11:59.907Z,83.19
2018-07-11T05:14:26.280Z,82.95
2018-07-11T05:16:52.640Z,82.39
2018-07-11T05:19:19.027Z,81.21
2018-07-11T05:21:45.427Z,79.01
2018-07-11T05:24:11.856Z,77.84
2018-07-11T05:26:38.173Z,76.82
2018-07-11T05:29:04.533Z,76.24
2018-07-11T05:31:30.888Z,75.22
2018-07-11T05:33:57.409Z,74.90
2018-07-11T05:36:23.865Z,71.73
2018-07-11T05:38:50.181Z,72.29
2018-07-11T05:41:16.544Z,68.41
2018-07-11T05:43:42.897Z,64.69
2018-07-11T05:46:09.250Z,61.59
2018-07-11T05:48:35.606Z,60.46
2018-07-11T05:51:01.958Z,59.67
2018-07-11T05:53:28.313Z,60.55
2018-07-11T05:55:54.671Z,60.19
2018-07-11T05:58:21.084Z,58.34
2018-07-11T06:00:47.414Z,59.31
2018-07-11T06:03:13.772Z,57.05
2018-07-11T06:05:40.134Z,55.48
2018-07-11T06:08:06.504Z,54.41
2018-07-11T06:10:32.870Z,55.36
2018-07-11T06:12:59.257Z,56.01
2018-07-11T06:15:25.694Z,54.56
2018-07-11T06:17:52.060Z,54.00
2018-07-11T06:20:18.482Z,53.62
2018-07-11T06:22:44.852Z,54.44
2018-07-11T06:25:11.217Z,56.35
2018-07-11T06:27:37.571Z,56.48
2018-07-11T06:30:03.971Z,55.81
2018-07-11T06:32:30.341Z,55.18
2018-07-11T06:34:56.690Z,53.14
2018-07-11T06:37:23.058Z,54.61
2018-07-11T06:39:49.424Z,55.81
2018-07-11T06:42:15.781Z,55.89
2018-07-11T06:44:42.132Z,54.39
2018-07-11T06:47:08.495Z,54.61
2018-07-11T06:49:34.896Z,54.50
2018-07-11T06:52:01.312Z,54.70
2018-07-11T06:54:27.607Z,54.78
2018-07-11T06:56:53.967Z,53.58
2018-07-11T06:59:20.327Z,53.31
2018-07-11T07:01:46.687Z,54.51
2018-07-11T07:04:13.045Z,53.51
2018-07-11T07:06:39.403Z,53.36
2018-07-11T07:09:05.761Z,53.86
2018-07-11T07:11:32.171Z,52.49
2018-07-11T07:13:58.534Z,52.03
2018-07-11T07:16:24.944Z,51.64
2018-07-11T07:18:51.264Z,53.21
2018-07-11T07:21:17.616Z,52.76
2018-07-11T07:23:43.973Z,52.43
2018-07-11T07:26:10.329Z,53.03
2018-07-11T07:28:36.696Z,51.91
2018-07-11T07:31:03.062Z,50.54
2018-07-11T07:33:29.408Z,50.70
2018-07-11T07:35:55.766Z,50.72
2018-07-11T07:38:22.139Z,49.60
2018-07-11T07:40:48.552Z,48.88
2018-07-11T07:43:15.008Z,50.77
2018-07-11T07:45:41.524Z,51.62
2018-07-11T07:48:07.891Z,52.27
2018-07-11T07:50:34.289Z,49.89
2018-07-11T07:53:00.624Z,49.83
2018-07-11T07:55:26.977Z,49.24
2018-07-11T07:57:53.334Z,49.70
2018-07-11T08:00:19.691Z,49.30
2018-07-11T08:02:46.163Z,47.66
2018-07-11T08:05:12.854Z,47.54
2018-07-11T08:07:39.225Z,46.58
2018-07-11T08:10:05.593Z,46.63
2018-07-11T08:12:31.998Z,47.00
2018-07-11T08:14:58.353Z,48.79
2018-07-11T08:17:24.739Z,47.13
2018-07-11T08:19:51.078Z,49.00
2018-07-11T08:22:17.453Z,48.02
2018-07-11T08:24:43.758Z,47.13
2018-07-11T08:27:10.184Z,45.72
2018-07-11T08:29:36.443Z,46.93
2018-07-11T08:32:02.755Z,47.48
2018-07-11T08:34:29.076Z,46.90
2018-07-11T08:36:55.389Z,44.82
2018-07-11T08:39:21.707Z,45.91
2018-07-11T08:41:48.025Z,46.76
2018-07-11T08:44:14.348Z,46.07
2018-07-11T08:46:40.667Z,47.60
2018-07-11T08:49:06.993Z,46.65
2018-07-11T08:51:33.371Z,47.49
2018-07-11T08:53:59.687Z,46.88
2018-07-11T08:56:26.006Z,44.07
2018-07-11T08:58:52.371Z,42.49
2018-07-11T09:01:18.681Z,42.27
2018-07-11T09:03:45.006Z,43.06
2018-07-11T09:06:11.333Z,42.36
2018-07-11T09:08:37.689Z,41.92
2018-07-11T09:11:04.002Z,41.38
2018-07-11T09:13:30.318Z,40.73
2018-07-11T09:15:56.641Z,40.79
2018-07-11T09:18:22.995Z,40.33
2018-07-11T09:20:49.348Z,40.19
2018-07-11T09:23:15.703Z,37.68
2018-07-11T09:25:42.016Z,39.05
2018-07-11T09:28:08.379Z,38.94
2018-07-11T09:33:01.011Z,38.91
2018-07-11T09:35:27.325Z,39.81
2018-07-11T09:37:53.647Z,38.59
2018-07-11T09:40:19.980Z,38.26
2018-07-11T09:42:46.301Z,38.71
2018-07-11T09:45:12.617Z,36.74
2018-07-11T09:47:38.928Z,38.75
2018-07-11T09:50:05.250Z,38.35
2018-07-11T09:52:31.563Z,37.26
2018-07-11T09:54:57.883Z,38.59
2018-07-11T09:57:24.207Z,39.93
2018-07-11T09:59:50.532Z,37.73
2018-07-11T10:02:16.853Z,36.97
2018-07-11T10:04:43.169Z,37.19
2018-07-11T10:07:09.491Z,37.33
2018-07-11T10:09:35.808Z,37.88
2018-07-11T10:12:02.153Z,37.07
2018-07-11T10:14:28.443Z,36.62
2018-07-11T10:16:54.759Z,35.78
2018-07-11T10:19:21.087Z,35.64
2018-07-11T10:21:47.399Z,35.18
2018-07-11T10:24:13.710Z,34.14
2018-07-11T10:26:40.026Z,35.17
2018-07-11T10:29:06.355Z,34.41
2018-07-11T10:31:32.710Z,34.48
2018-07-11T10:33:59.121Z,35.79
2018-07-11T10:36:25.497Z,34.17
2018-07-11T10:38:51.865Z,35.91
2018-07-11T10:41:18.187Z,36.39
2018-07-11T10:43:44.501Z,36.42
2018-07-11T10:46:10.873Z,36.28
2018-07-11T10:48:37.251Z,35.56
2018-07-11T10:51:03.552Z,35.26
2018-07-11T10:53:29.865Z,37.18
2018-07-11T10:55:56.183Z,37.56
2018-07-11T10:58:22.619Z,36.84
2018-07-11T11:01:05.031Z,37.76
2018-07-11T11:03:15.132Z,38.57
2018-07-11T11:05:41.451Z,39.13
2018-07-11T11:08:07.849Z,38.34
2018-07-11T11:10:34.097Z,38.67
2018-07-11T11:13:00.435Z,38.51
2018-07-11T11:15:26.746Z,37.00
2018-07-11T11:17:53.065Z,37.72
2018-07-11T11:20:19.388Z,37.02
2018-07-11T11:22:45.703Z,38.16
2018-07-11T11:25:12.035Z,37.67
2018-07-11T11:27:38.387Z,36.85
2018-07-11T11:30:04.673Z,36.88
2018-07-11T11:32:30.985Z,37.47
2018-07-11T11:34:57.301Z,37.04
2018-07-11T11:37:23.621Z,37.46
2018-07-11T11:39:49.935Z,36.71
2018-07-11T11:42:16.321Z,37.92
2018-07-11T11:44:42.570Z,37.46
2018-07-11T11:47:08.885Z,37.36
2018-07-11T11:49:35.196Z,36.54
2018-07-11T11:52:01.555Z,36.38
2018-07-11T11:54:27.849Z,36.31
2018-07-11T11:56:54.161Z,37.01
2018-07-11T11:59:20.476Z,36.78
2018-07-11T12:01:46.946Z,35.97
2018-07-11T12:04:13.116Z,36.28
2018-07-11T12:06:39.434Z,36.26
2018-07-11T12:09:05.753Z,36.88
2018-07-11T12:11:32.065Z,37.50
2018-07-11T12:13:58.423Z,37.73
2018-07-11T12:16:24.738Z,38.37
2018-07-11T12:18:51.054Z,38.28
2018-07-11T12:21:17.417Z,39.95
2018-07-11T12:23:43.687Z,38.88
2018-07-11T12:26:10.011Z,39.82
2018-07-11T12:28:36.326Z,38.25
2018-07-11T12:31:02.647Z,38.79
2018-07-11T12:33:29.005Z,38.16
2018-07-11T12:35:55.284Z,39.35
2018-07-11T12:38:21.635Z,39.90
2018-07-11T12:40:47.984Z,38.86
2018-07-11T12:43:14.294Z,38.86
2018-07-11T12:45:40.620Z,38.47
2018-07-11T12:48:06.935Z,37.66
2018-07-11T12:50:33.330Z,37.84
2018-07-11T12:52:59.611Z,38.71
2018-07-11T12:55:25.921Z,38.37
2018-07-11T12:57:52.276Z,38.76
2018-07-11T13:00:18.588Z,38.09
2018-07-11T13:02:44.921Z,37.93
2018-07-11T13:05:11.232Z,38.35
2018-07-11T13:07:37.574Z,36.93
2018-07-11T13:10:03.894Z,36.95
2018-07-11T13:12:30.210Z,39.15
2018-07-11T13:14:56.533Z,38.89
2018-07-11T13:17:22.861Z,39.68
2018-07-11T13:19:49.184Z,39.68
2018-07-11T13:22:15.494Z,39.25
2018-07-11T13:24:41.837Z,39.98
2018-07-11T13:27:08.159Z,39.78
2018-07-11T13:29:34.476Z,38.87
2018-07-11T13:32:00.787Z,37.90
2018-07-11T13:34:27.098Z,35.62
2018-07-11T13:36:53.421Z,35.62
2018-07-11T13:39:19.739Z,34.46
2018-07-11T13:41:46.053Z,35.31
2018-07-11T13:44:12.397Z,36.55
2018-07-11T13:46:38.724Z,39.57
2018-07-11T13:49:05.035Z,40.30
2018-07-11T13:51:31.350Z,40.81
2018-07-11T13:53:57.697Z,41.07
2018-07-11T13:56:24.025Z,40.98
2018-07-11T13:58:50.334Z,40.81
2018-07-11T14:01:16.692Z,40.31
2018-07-11T14:03:43.010Z,39.84
2018-07-11T14:06:09.330Z,39.91
2018-07-11T14:08:35.646Z,39.30
2018-07-11T14:11:01.967Z,39.97
2018-07-11T14:13:28.292Z,39.86
2018-07-11T14:15:54.610Z,40.17
2018-07-11T14:18:20.974Z,39.85
2018-07-11T14:20:47.341Z,38.86
2018-07-11T14:23:13.657Z,38.92
2018-07-11T14:25:39.976Z,39.38
2018-07-11T14:28:06.289Z,38.75
2018-07-11T14:30:32.624Z,38.41
2018-07-11T14:32:58.945Z,38.91
2018-07-11T14:35:25.309Z,38.88
2018-07-11T14:37:51.635Z,39.74
2018-07-11T14:40:17.947Z,39.39
2018-07-11T14:42:44.261Z,39.47
2018-07-11T14:45:16.464Z,39.44
2018-07-11T14:47:42.790Z,40.79
2018-07-11T14:50:09.106Z,42.72
2018-07-11T14:52:35.420Z,44.02
2018-07-11T14:55:01.735Z,44.37
2018-07-11T14:57:28.189Z,44.57
2018-07-11T14:59:54.433Z,45.26
2018-07-11T15:02:20.739Z,45.39
2018-07-11T15:04:47.064Z,46.38
2018-07-11T15:07:13.422Z,47.99
2018-07-11T15:09:39.737Z,48.09
2018-07-11T15:12:06.050Z,48.61
2018-07-11T15:14:32.373Z,48.10
2018-07-11T15:16:58.744Z,47.59
2018-07-11T15:19:25.047Z,47.60
2018-07-11T15:21:51.357Z,48.37
2018-07-11T15:24:17.684Z,48.97
2018-07-11T15:26:43.992Z,49.03
2018-07-11T15:29:10.303Z,49.60
2018-07-11T15:31:36.630Z,49.60
2018-07-11T15:34:02.975Z,49.13
2018-07-11T15:36:29.298Z,48.72
2018-07-11T15:38:55.662Z,48.61
2018-07-11T15:41:21.935Z,49.57
2018-07-11T15:43:48.305Z,49.90
2018-07-11T15:46:14.591Z,49.51
2018-07-11T15:48:40.944Z,50.02
2018-07-11T15:51:07.281Z,49.82
2018-07-11T15:53:33.611Z,49.66
2018-07-11T15:55:59.895Z,49.91
2018-07-11T15:58:26.230Z,49.84
2018-07-11T16:00:52.572Z,50.23
2018-07-11T16:03:18.892Z,50.70
2018-07-11T16:05:45.337Z,50.64
2018-07-11T16:08:11.525Z,50.17
2018-07-11T16:10:37.833Z,50.64
2018-07-11T16:13:04.153Z,50.44
2018-07-11T16:15:30.465Z,50.87
2018-07-11T16:17:56.788Z,51.17
2018-07-11T16:20:23.101Z,51.46
2018-07-11T16:22:49.409Z,51.48
2018-07-11T16:25:15.735Z,51.68
2018-07-11T16:27:42.107Z,51.37
2018-07-11T16:30:08.475Z,52.04
2018-07-11T16:32:34.785Z,52.40
2018-07-11T16:35:01.092Z,53.05
2018-07-11T16:37:27.413Z,53.24
2018-07-11T16:39:53.729Z,52.98
2018-07-11T16:42:20.077Z,52.60
2018-07-11T16:44:46.441Z,53.23
2018-07-11T16:47:12.757Z,52.89
2018-07-11T16:49:39.071Z,53.00
2018-07-11T16:52:05.390Z,53.42
2018-07-11T16:54:31.701Z,52.93
2018-07-11T16:56:59.695Z,53.46
2018-07-11T16:59:24.329Z,54.14
2018-07-11T17:01:50.636Z,54.02
2018-07-11T17:04:16.954Z,53.77
2018-07-11T17:06:43.273Z,53.71
2018-07-11T17:09:09.595Z,54.34
2018-07-11T17:11:36.347Z,53.77
2018-07-11T17:14:02.529Z,53.57
2018-07-11T17:16:29.402Z,54.37
2018-07-11T17:18:55.717Z,54.68
2018-07-11T17:21:22.052Z,55.39
2018-07-11T17:23:48.365Z,56.04
2018-07-11T17:26:14.689Z,56.99
2018-07-11T17:28:41.032Z,57.61
2018-07-11T17:31:07.354Z,58.07
2018-07-11T17:33:33.684Z,58.52
2018-07-11T17:36:00.027Z,58.90
2018-07-11T17:38:26.428Z,59.16
2018-07-11T17:40:52.745Z,59.73
2018-07-11T17:43:19.027Z,60.25
2018-07-11T17:45:45.341Z,60.51
2018-07-11T17:48:11.736Z,60.80
2018-07-11T17:50:38.018Z,60.85
2018-07-11T17:53:04.374Z,60.98
2018-07-11T17:55:30.701Z,60.94
2018-07-11T17:57:57.026Z,61.06
2018-07-11T18:00:23.393Z,61.53
2018-07-11T18:02:49.720Z,61.83
2018-07-11T18:05:16.087Z,61.96
2018-07-11T18:07:42.414Z,62.37
2018-07-11T18:10:08.758Z,62.68
2018-07-11T18:12:35.093Z,63.11
2018-07-11T18:15:01.452Z,63.47
2018-07-11T18:17:27.735Z,64.16
2018-07-11T18:19:54.100Z,64.10
2018-07-11T18:22:20.409Z,64.20
2018-07-11T18:24:46.717Z,64.40
2018-07-11T18:27:13.073Z,64.51
2018-07-11T18:29:39.401Z,64.60
2018-07-11T18:32:05.741Z,64.98
2018-07-11T18:34:32.051Z,65.07
2018-07-11T18:36:58.407Z,65.24
2018-07-11T18:39:24.771Z,65.56
2018-07-11T18:41:51.139Z,65.90
2018-07-11T18:44:17.451Z,66.41
2018-07-11T18:46:43.763Z,65.95
2018-07-11T18:49:10.100Z,66.33
2018-07-11T18:51:36.415Z,66.64
2018-07-11T18:54:02.738Z,67.50
2018-07-11T18:56:29.069Z,68.08
2018-07-11T18:58:55.375Z,67.89
2018-07-11T19:01:21.735Z,67.96
2018-07-11T19:03:48.045Z,68.61
2018-07-11T19:06:14.599Z,68.75
2018-07-11T19:08:40.734Z,69.09
2018-07-11T19:11:07.063Z,68.94
2018-07-11T19:13:33.409Z,69.44
2018-07-11T19:15:59.704Z,69.81
2018-07-11T19:18:26.048Z,70.37
2018-07-11T19:20:52.377Z,70.40
2018-07-11T19:23:18.691Z,69.86
2018-07-11T19:25:45.112Z,69.75
2018-07-11T19:28:11.404Z,69.22
2018-07-11T19:30:37.734Z,69.26
2018-07-11T19:33:04.072Z,69.82
2018-07-11T19:35:30.409Z,70.06
2018-07-11T19:37:56.739Z,69.69
2018-07-11T19:40:23.071Z,69.85
2018-07-11T19:42:49.432Z,70.54
2018-07-11T19:45:15.786Z,70.88
2018-07-11T19:47:42.102Z,71.14
2018-07-11T19:50:08.426Z,71.45
2018-07-11T19:52:34.748Z,71.47
2018-07-11T19:55:01.117Z,71.86
2018-07-11T19:57:27.430Z,72.15
2018-07-11T19:59:53.748Z,71.90
2018-07-11T20:02:20.060Z,72.55
2018-07-11T20:04:46.379Z,72.49
2018-07-11T20:07:12.733Z,72.54
2018-07-11T20:09:39.039Z,73.33
2018-07-11T20:12:05.352Z,73.12
2018-07-11T20:14:31.673Z,73.16
2018-07-11T20:16:57.990Z,72.74
2018-07-11T20:19:24.329Z,73.17
2018-07-11T20:21:50.628Z,72.81
2018-07-11T20:24:16.937Z,72.52
2018-07-11T20:26:43.257Z,72.81
2018-07-11T20:29:09.592Z,72.35
2018-07-11T20:31:35.909Z,73.09
2018-07-11T20:34:02.231Z,73.56
2018-07-11T20:36:28.563Z,73.37
2018-07-11T20:38:54.871Z,72.93
2018-07-11T20:41:21.193Z,72.80
2018-07-11T20:43:47.499Z,72.73
2018-07-11T20:46:13.882Z,73.15
2018-07-11T20:48:40.153Z,73.04
2018-07-11T20:53:32.578Z,71.79
2018-07-11T20:55:58.896Z,71.10
2018-07-11T20:58:25.205Z,71.33
2018-07-11T21:00:51.555Z,72.15
2018-07-11T21:03:17.868Z,72.57
2018-07-11T21:05:44.178Z,72.53
2018-07-11T21:08:10.499Z,72.42
2018-07-11T21:10:36.906Z,72.60
2018-07-11T21:14:13.631Z,72.60
2018-07-11T21:15:34.962Z,72.40
2018-07-11T21:18:01.287Z,72.46
2018-07-11T21:20:27.563Z,72.41
2018-07-11T21:23:08.110Z,72.70
2018-07-11T21:25:24.707Z,72.88
2018-07-11T21:27:50.941Z,73.03
2018-07-11T21:30:19.427Z,73.41
2018-07-11T21:32:43.559Z,73.59
2018-07-11T21:35:09.885Z,73.80
2018-07-11T21:37:36.186Z,74.45
2018-07-11T21:40:15.919Z,75.12
2018-07-11T21:42:46.144Z,74.72
2018-07-11T21:45:20.006Z,75.14
2018-07-11T21:47:46.336Z,75.56
2018-07-11T21:50:15.451Z,75.11
2018-07-11T21:52:41.769Z,76.78
2018-07-11T21:55:08.075Z,77.01
2018-07-11T21:57:34.394Z,76.53
2018-07-11T22:00:00.711Z,76.88
2018-07-11T22:02:27.105Z,77.40
2018-07-11T22:04:53.458Z,77.97
2018-07-11T22:07:19.767Z,78.74
2018-07-11T22:09:46.085Z,79.89
2018-07-11T22:12:12.397Z,80.86
2018-07-11T22:14:38.709Z,81.11
2018-07-11T22:17:05.027Z,81.22
2018-07-11T22:19:31.356Z,81.14
2018-07-11T22:21:57.715Z,81.04
2018-07-11T22:24:24.052Z,81.63
2018-07-11T22:26:50.333Z,81.59
2018-07-11T22:29:16.651Z,81.62
2018-07-11T22:31:42.961Z,81.98
2018-07-11T22:34:09.338Z,82.05
2018-07-11T22:36:35.659Z,82.05
2018-07-11T22:39:01.976Z,82.35
2018-07-11T22:41:28.331Z,82.48
2018-07-11T22:43:54.643Z,82.34
2018-07-11T22:46:20.996Z,82.19
2018-07-11T22:48:47.308Z,82.28
2018-07-11T22:51:13.619Z,82.67
2018-07-11T22:53:39.928Z,82.72
2018-07-11T22:56:06.281Z,83.30
2018-07-11T22:58:32.595Z,83.51
2018-07-11T23:00:58.914Z,83.66
2018-07-11T23:03:25.231Z,84.24
2018-07-11T23:05:51.540Z,84.40
2018-07-11T23:08:17.915Z,84.22
2018-07-11T23:10:44.200Z,84.12
2018-07-11T23:13:10.513Z,83.84
2018-07-11T23:15:36.863Z,84.19
2018-07-11T23:18:03.176Z,84.76
2018-07-11T23:20:29.529Z,84.77
2018-07-11T23:22:55.808Z,84.86
2018-07-11T23:25:22.126Z,85.96
2018-07-11T23:27:48.445Z,86.26
2018-07-11T23:30:14.760Z,86.15
2018-07-11T23:32:41.077Z,86.12
2018-07-11T23:35:07.397Z,86.06
2018-07-11T23:37:33.711Z,85.77
2018-07-11T23:40:00.028Z,85.58
2018-07-11T23:42:26.345Z,86.18
2018-07-11T23:44:52.652Z,86.59
2018-07-11T23:47:18.968Z,86.63
2018-07-11T23:49:45.285Z,86.75
2018-07-11T23:52:11.644Z,86.95
2018-07-11T23:54:37.963Z,86.67
2018-07-11T23:57:04.279Z,86.33
2018-07-11T23:59:30.649Z,86.70
